sensor_id;sensor_type;location;lat;lon;timestamp;temperature;humidity
70593;DHT22;58294;42.988;20.338;2023-02-19T00:01:24;128.70;1561.60
70593;DHT22;58294;42.988;20.338;2023-02-19T00:03:54;128.70;1561.60
70593;DHT22;58294;42.988;20.338;2023-02-19T00:06:22;128.70;1587.20
70593;DHT22;58294;42.988;20.338;2023-02-19T00:08:48;128.70;1561.60
70593;DHT22;58294;42.988;20.338;2023-02-19T00:11:17;128.70;1561.60
70593;DHT22;58294;42.988;20.338;2023-02-19T00:13:45;128.70;1587.20
70593;DHT22;58294;42.988;20.338;2023-02-19T00:16:18;128.70;1561.60
70593;DHT22;58294;42.988;20.338;2023-02-19T00:18:44;128.60;1561.60
70593;DHT22;58294;42.988;20.338;2023-02-19T00:21:10;128.60;1587.20
70593;DHT22;58294;42.988;20.338;2023-02-19T00:23:36;128.50;1587.20
70593;DHT22;58294;42.988;20.338;2023-02-19T00:26:07;128.50;1612.80
70593;DHT22;58294;42.988;20.338;2023-02-19T00:28:34;128.50;1587.20
70593;DHT22;58294;42.988;20.338;2023-02-19T00:31:22;128.50;1587.20
70593;DHT22;58294;42.988;20.338;2023-02-19T00:33:50;128.40;1561.60
70593;DHT22;58294;42.988;20.338;2023-02-19T00:36:16;128.40;1587.20
70593;DHT22;58294;42.988;20.338;2023-02-19T00:38:43;128.40;1587.20
70593;DHT22;58294;42.988;20.338;2023-02-19T00:41:10;128.40;1587.20
70593;DHT22;58294;42.988;20.338;2023-02-19T00:46:11;128.30;1587.20
70593;DHT22;58294;42.988;20.338;2023-02-19T00:48:37;128.30;1561.60
70593;DHT22;58294;42.988;20.338;2023-02-19T00:51:03;128.20;1587.20
70593;DHT22;58294;42.988;20.338;2023-02-19T00:53:29;128.20;1612.80
70593;DHT22;58294;42.988;20.338;2023-02-19T00:55:54;128.20;1612.80
70593;DHT22;58294;42.988;20.338;2023-02-19T00:58:20;128.20;1612.80
70593;DHT22;58294;42.988;20.338;2023-02-19T01:00:46;128.20;1587.20
70593;DHT22;58294;42.988;20.338;2023-02-19T01:03:11;128.10;1612.80
70593;DHT22;58294;42.988;20.338;2023-02-19T01:05:37;128.10;1612.80
70593;DHT22;58294;42.988;20.338;2023-02-19T01:08:03;128.10;1587.20
70593;DHT22;58294;42.988;20.338;2023-02-19T01:10:29;128.10;1587.20
70593;DHT22;58294;42.988;20.338;2023-02-19T01:12:54;128.00;1612.80
70593;DHT22;58294;42.988;20.338;2023-02-19T01:15:20;128.00;1612.80
70593;DHT22;58294;42.988;20.338;2023-02-19T01:17:46;128.00;1612.80
70593;DHT22;58294;42.988;20.338;2023-02-19T01:20:11;128.00;1638.40
70593;DHT22;58294;42.988;20.338;2023-02-19T01:22:37;128.00;1638.40
70593;DHT22;58294;42.988;20.338;2023-02-19T01:25:03;128.00;1612.80
70593;DHT22;58294;42.988;20.338;2023-02-19T01:27:29;128.00;1638.40
70593;DHT22;58294;42.988;20.338;2023-02-19T01:29:54;103.30;1561.60
70593;DHT22;58294;42.988;20.338;2023-02-19T01:32:20;103.20;1587.20
70593;DHT22;58294;42.988;20.338;2023-02-19T01:34:46;103.20;1612.80
70593;DHT22;58294;42.988;20.338;2023-02-19T01:37:11;103.20;1612.80
70593;DHT22;58294;42.988;20.338;2023-02-19T01:39:38;103.20;1612.80
70593;DHT22;58294;42.988;20.338;2023-02-19T01:42:09;103.20;1612.80
70593;DHT22;58294;42.988;20.338;2023-02-19T01:47:02;103.20;1612.80
70593;DHT22;58294;42.988;20.338;2023-02-19T01:49:31;103.10;1587.20
70593;DHT22;58294;42.988;20.338;2023-02-19T01:52:03;103.10;1587.20
70593;DHT22;58294;42.988;20.338;2023-02-19T01:54:34;103.00;1587.20
70593;DHT22;58294;42.988;20.338;2023-02-19T01:57:05;102.90;1612.80
70593;DHT22;58294;42.988;20.338;2023-02-19T01:59:33;102.90;1664.00
70593;DHT22;58294;42.988;20.338;2023-02-19T02:01:59;102.90;1612.80
70593;DHT22;58294;42.988;20.338;2023-02-19T02:04:25;102.80;1587.20
70593;DHT22;58294;42.988;20.338;2023-02-19T02:06:57;102.80;1638.40
70593;DHT22;58294;42.988;20.338;2023-02-19T02:09:27;102.80;1638.40
70593;DHT22;58294;42.988;20.338;2023-02-19T02:12:12;102.80;1638.40
70593;DHT22;58294;42.988;20.338;2023-02-19T02:14:41;102.70;1638.40
70593;DHT22;58294;42.988;20.338;2023-02-19T02:17:30;102.80;1612.80
70593;DHT22;58294;42.988;20.338;2023-02-19T02:23:13;102.70;1612.80
70593;DHT22;58294;42.988;20.338;2023-02-19T02:28:52;102.60;1664.00
70593;DHT22;58294;42.988;20.338;2023-02-19T02:31:25;102.60;1638.40
70593;DHT22;58294;42.988;20.338;2023-02-19T02:34:03;102.60;1664.00
70593;DHT22;58294;42.988;20.338;2023-02-19T02:36:34;102.70;1664.00
70593;DHT22;58294;42.988;20.338;2023-02-19T02:39:01;102.70;1664.00
70593;DHT22;58294;42.988;20.338;2023-02-19T02:41:31;102.70;1664.00
70593;DHT22;58294;42.988;20.338;2023-02-19T02:43:57;102.70;1664.00
70593;DHT22;58294;42.988;20.338;2023-02-19T02:46:28;102.70;1638.40
70593;DHT22;58294;42.988;20.338;2023-02-19T02:48:56;102.70;1664.00
70593;DHT22;58294;42.988;20.338;2023-02-19T02:51:26;102.70;1664.00
70593;DHT22;58294;42.988;20.338;2023-02-19T02:54:11;102.70;1664.00
70593;DHT22;58294;42.988;20.338;2023-02-19T02:56:58;102.70;1638.40
70593;DHT22;58294;42.988;20.338;2023-02-19T02:59:30;102.70;1664.00
70593;DHT22;58294;42.988;20.338;2023-02-19T03:02:34;102.70;1638.40
70593;DHT22;58294;42.988;20.338;2023-02-19T03:04:59;102.70;1638.40
70593;DHT22;58294;42.988;20.338;2023-02-19T03:07:53;102.60;1664.00
70593;DHT22;58294;42.988;20.338;2023-02-19T03:10:26;102.60;1664.00
70593;DHT22;58294;42.988;20.338;2023-02-19T03:12:54;102.60;1664.00
70593;DHT22;58294;42.988;20.338;2023-02-19T03:15:46;102.60;1664.00
70593;DHT22;58294;42.988;20.338;2023-02-19T03:18:32;102.60;1664.00
70593;DHT22;58294;42.988;20.338;2023-02-19T03:21:20;102.50;1664.00
70593;DHT22;58294;42.988;20.338;2023-02-19T03:23:48;102.50;1664.00
70593;DHT22;58294;42.988;20.338;2023-02-19T03:26:34;102.40;1638.40
70593;DHT22;58294;42.988;20.338;2023-02-19T03:29:02;102.40;1664.00
70593;DHT22;58294;42.988;20.338;2023-02-19T03:31:50;102.40;1664.00
70593;DHT22;58294;42.988;20.338;2023-02-19T03:34:21;102.40;1664.00
70593;DHT22;58294;42.988;20.338;2023-02-19T03:37:24;102.40;1689.60
70593;DHT22;58294;42.988;20.338;2023-02-19T03:39:53;102.40;1638.40
70593;DHT22;58294;42.988;20.338;2023-02-19T03:43:02;77.70;1664.00
70593;DHT22;58294;42.988;20.338;2023-02-19T03:48:19;77.70;1664.00
70593;DHT22;58294;42.988;20.338;2023-02-19T04:01:34;77.40;1664.00
70593;DHT22;58294;42.988;20.338;2023-02-19T04:04:12;77.40;1689.60
70593;DHT22;58294;42.988;20.338;2023-02-19T04:06:41;77.40;1689.60
70593;DHT22;58294;42.988;20.338;2023-02-19T04:09:10;77.40;1689.60
70593;DHT22;58294;42.988;20.338;2023-02-19T04:11:38;77.40;1715.20
70593;DHT22;58294;42.988;20.338;2023-02-19T04:14:31;77.40;1689.60
70593;DHT22;58294;42.988;20.338;2023-02-19T04:17:01;77.40;1689.60
70593;DHT22;58294;42.988;20.338;2023-02-19T04:19:30;77.40;1689.60
70593;DHT22;58294;42.988;20.338;2023-02-19T04:21:58;77.30;1689.60
70593;DHT22;58294;42.988;20.338;2023-02-19T04:24:31;77.30;1689.60
70593;DHT22;58294;42.988;20.338;2023-02-19T04:26:59;77.30;1664.00
70593;DHT22;58294;42.988;20.338;2023-02-19T04:29:25;77.20;1715.20
70593;DHT22;58294;42.988;20.338;2023-02-19T04:31:51;77.20;1715.20
70593;DHT22;58294;42.988;20.338;2023-02-19T04:34:16;77.10;1689.60
70593;DHT22;58294;42.988;20.338;2023-02-19T04:36:42;77.10;1715.20
70593;DHT22;58294;42.988;20.338;2023-02-19T04:39:09;77.10;1715.20
70593;DHT22;58294;42.988;20.338;2023-02-19T04:41:35;77.10;1715.20
70593;DHT22;58294;42.988;20.338;2023-02-19T04:44:00;77.10;1715.20
70593;DHT22;58294;42.988;20.338;2023-02-19T04:46:26;77.10;1715.20
70593;DHT22;58294;42.988;20.338;2023-02-19T04:48:52;77.10;1740.80
70593;DHT22;58294;42.988;20.338;2023-02-19T04:51:17;77.10;1715.20
70593;DHT22;58294;42.988;20.338;2023-02-19T04:53:43;77.20;1715.20
70593;DHT22;58294;42.988;20.338;2023-02-19T04:56:11;77.20;1740.80
70593;DHT22;58294;42.988;20.338;2023-02-19T04:58:38;77.10;1715.20
70593;DHT22;58294;42.988;20.338;2023-02-19T05:01:05;77.10;1715.20
70593;DHT22;58294;42.988;20.338;2023-02-19T05:03:31;77.10;1740.80
70593;DHT22;58294;42.988;20.338;2023-02-19T05:06:11;77.10;1740.80
70593;DHT22;58294;42.988;20.338;2023-02-19T05:08:37;77.10;1740.80
70593;DHT22;58294;42.988;20.338;2023-02-19T05:11:05;77.10;1740.80
70593;DHT22;58294;42.988;20.338;2023-02-19T05:13:32;77.10;1740.80
70593;DHT22;58294;42.988;20.338;2023-02-19T05:16:10;77.10;1715.20
70593;DHT22;58294;42.988;20.338;2023-02-19T05:18:41;77.10;1740.80
70593;DHT22;58294;42.988;20.338;2023-02-19T05:21:08;77.10;1740.80
70593;DHT22;58294;42.988;20.338;2023-02-19T05:23:33;77.20;1740.80
70593;DHT22;58294;42.988;20.338;2023-02-19T05:26:04;77.10;1740.80
70593;DHT22;58294;42.988;20.338;2023-02-19T05:28:30;77.10;1740.80
70593;DHT22;58294;42.988;20.338;2023-02-19T05:30:56;77.10;1740.80
70593;DHT22;58294;42.988;20.338;2023-02-19T05:33:24;77.10;1740.80
70593;DHT22;58294;42.988;20.338;2023-02-19T05:35:53;77.10;1740.80
70593;DHT22;58294;42.988;20.338;2023-02-19T05:38:20;77.10;1740.80
70593;DHT22;58294;42.988;20.338;2023-02-19T05:40:45;77.10;1715.20
70593;DHT22;58294;42.988;20.338;2023-02-19T05:43:12;77.10;1740.80
70593;DHT22;58294;42.988;20.338;2023-02-19T05:45:39;77.10;1740.80
70593;DHT22;58294;42.988;20.338;2023-02-19T05:48:06;77.10;1740.80
70593;DHT22;58294;42.988;20.338;2023-02-19T05:50:34;77.20;1740.80
70593;DHT22;58294;42.988;20.338;2023-02-19T05:53:03;77.20;1740.80
70593;DHT22;58294;42.988;20.338;2023-02-19T05:55:33;77.10;1740.80
70593;DHT22;58294;42.988;20.338;2023-02-19T05:58:00;77.20;1740.80
70593;DHT22;58294;42.988;20.338;2023-02-19T06:00:26;77.20;1740.80
70593;DHT22;58294;42.988;20.338;2023-02-19T06:02:52;77.20;1740.80
70593;DHT22;58294;42.988;20.338;2023-02-19T06:05:19;77.20;1740.80
70593;DHT22;58294;42.988;20.338;2023-02-19T06:07:44;77.20;1740.80
70593;DHT22;58294;42.988;20.338;2023-02-19T06:10:11;77.10;1740.80
70593;DHT22;58294;42.988;20.338;2023-02-19T06:12:37;77.10;1740.80
70593;DHT22;58294;42.988;20.338;2023-02-19T06:15:04;77.20;1740.80
70593;DHT22;58294;42.988;20.338;2023-02-19T06:17:31;77.20;1766.40
70593;DHT22;58294;42.988;20.338;2023-02-19T06:19:57;77.20;1740.80
70593;DHT22;58294;42.988;20.338;2023-02-19T06:22:23;77.10;1740.80
70593;DHT22;58294;42.988;20.338;2023-02-19T06:24:49;77.20;1766.40
70593;DHT22;58294;42.988;20.338;2023-02-19T06:27:15;77.20;1740.80
70593;DHT22;58294;42.988;20.338;2023-02-19T06:29:41;77.20;1766.40
70593;DHT22;58294;42.988;20.338;2023-02-19T06:32:06;77.10;1715.20
70593;DHT22;58294;42.988;20.338;2023-02-19T06:34:33;77.10;1766.40
70593;DHT22;58294;42.988;20.338;2023-02-19T06:36:59;77.10;1766.40
70593;DHT22;58294;42.988;20.338;2023-02-19T06:39:26;77.10;1766.40
70593;DHT22;58294;42.988;20.338;2023-02-19T06:41:55;77.20;1766.40
70593;DHT22;58294;42.988;20.338;2023-02-19T06:44:22;77.20;1766.40
70593;DHT22;58294;42.988;20.338;2023-02-19T06:46:48;77.20;1766.40
70593;DHT22;58294;42.988;20.338;2023-02-19T06:49:13;77.30;1766.40
70593;DHT22;58294;42.988;20.338;2023-02-19T06:51:40;77.30;1766.40
70593;DHT22;58294;42.988;20.338;2023-02-19T06:54:06;77.40;1792.00
70593;DHT22;58294;42.988;20.338;2023-02-19T06:56:34;77.50;1817.60
70593;DHT22;58294;42.988;20.338;2023-02-19T06:59:02;77.60;1817.60
70593;DHT22;58294;42.988;20.338;2023-02-19T07:01:30;102.40;1817.60
70593;DHT22;58294;42.988;20.338;2023-02-19T07:03:56;102.40;1792.00
70593;DHT22;58294;42.988;20.338;2023-02-19T07:06:23;102.50;1792.00
70593;DHT22;58294;42.988;20.338;2023-02-19T07:08:50;102.60;1792.00
70593;DHT22;58294;42.988;20.338;2023-02-19T07:11:16;102.70;1792.00
70593;DHT22;58294;42.988;20.338;2023-02-19T07:13:43;102.80;1792.00
70593;DHT22;58294;42.988;20.338;2023-02-19T07:16:10;102.90;1817.60
70593;DHT22;58294;42.988;20.338;2023-02-19T07:18:37;103.00;1843.20
70593;DHT22;58294;42.988;20.338;2023-02-19T07:21:11;103.10;1792.00
70593;DHT22;58294;42.988;20.338;2023-02-19T07:23:37;103.20;1817.60
70593;DHT22;58294;42.988;20.338;2023-02-19T07:26:04;103.30;1817.60
70593;DHT22;58294;42.988;20.338;2023-02-19T07:28:32;128.10;1817.60
70593;DHT22;58294;42.988;20.338;2023-02-19T07:31:03;128.20;1817.60
70593;DHT22;58294;42.988;20.338;2023-02-19T07:33:29;128.40;1817.60
70593;DHT22;58294;42.988;20.338;2023-02-19T07:35:55;128.50;2252.80
70593;DHT22;58294;42.988;20.338;2023-02-19T07:38:22;128.80;1843.20
70593;DHT22;58294;42.988;20.338;2023-02-19T07:40:56;128.90;1817.60
70593;DHT22;58294;42.988;20.338;2023-02-19T07:43:23;153.60;1817.60
70593;DHT22;58294;42.988;20.338;2023-02-19T07:45:49;153.80;1843.20
70593;DHT22;58294;42.988;20.338;2023-02-19T07:48:16;154.00;1843.20
70593;DHT22;58294;42.988;20.338;2023-02-19T07:50:42;154.20;1843.20
70593;DHT22;58294;42.988;20.338;2023-02-19T07:53:14;154.40;1817.60
70593;DHT22;58294;42.988;20.338;2023-02-19T07:55:40;154.50;1817.60
70593;DHT22;58294;42.988;20.338;2023-02-19T07:58:06;179.30;1766.40
70593;DHT22;58294;42.988;20.338;2023-02-19T08:00:31;179.40;1792.00
70593;DHT22;58294;42.988;20.338;2023-02-19T08:02:57;179.60;1766.40
70593;DHT22;58294;42.988;20.338;2023-02-19T08:05:37;179.70;1766.40
70593;DHT22;58294;42.988;20.338;2023-02-19T08:08:13;179.80;1766.40
70593;DHT22;58294;42.988;20.338;2023-02-19T08:10:39;180.00;1740.80
70593;DHT22;58294;42.988;20.338;2023-02-19T08:13:24;180.00;1996.80
70593;DHT22;58294;42.988;20.338;2023-02-19T08:16:12;204.80;1740.80
70593;DHT22;58294;42.988;20.338;2023-02-19T08:18:38;204.80;1740.80
70593;DHT22;58294;42.988;20.338;2023-02-19T08:21:04;205.00;1740.80
70593;DHT22;58294;42.988;20.338;2023-02-19T08:23:29;205.10;1740.80
70593;DHT22;58294;42.988;20.338;2023-02-19T08:25:59;205.30;1715.20
70593;DHT22;58294;42.988;20.338;2023-02-19T08:28:25;205.30;1715.20
70593;DHT22;58294;42.988;20.338;2023-02-19T08:30:52;205.40;1715.20
70593;DHT22;58294;42.988;20.338;2023-02-19T08:33:19;205.60;1740.80
70593;DHT22;58294;42.988;20.338;2023-02-19T08:35:45;205.70;1715.20
70593;DHT22;58294;42.988;20.338;2023-02-19T08:38:12;230.40;1715.20
70593;DHT22;58294;42.988;20.338;2023-02-19T08:40:41;230.50;1689.60
70593;DHT22;58294;42.988;20.338;2023-02-19T08:43:09;230.70;1689.60
70593;DHT22;58294;42.988;20.338;2023-02-19T08:45:40;230.80;1689.60
70593;DHT22;58294;42.988;20.338;2023-02-19T08:48:06;231.00;1689.60
70593;DHT22;58294;42.988;20.338;2023-02-19T08:50:32;231.10;1689.60
70593;DHT22;58294;42.988;20.338;2023-02-19T08:52:59;231.20;1664.00
70593;DHT22;58294;42.988;20.338;2023-02-19T08:55:25;231.30;1664.00
70593;DHT22;58294;42.988;20.338;2023-02-19T08:57:51;256.00;1664.00
70593;DHT22;58294;42.988;20.338;2023-02-19T09:00:17;256.20;1664.00
70593;DHT22;58294;42.988;20.338;2023-02-19T09:02:43;256.30;1664.00
70593;DHT22;58294;42.988;20.338;2023-02-19T09:05:10;256.50;1664.00
70593;DHT22;58294;42.988;20.338;2023-02-19T09:07:36;256.70;1638.40
70593;DHT22;58294;42.988;20.338;2023-02-19T09:10:02;256.90;1638.40
70593;DHT22;58294;42.988;20.338;2023-02-19T09:12:28;281.60;1638.40
70593;DHT22;58294;42.988;20.338;2023-02-19T09:14:53;281.70;1638.40
70593;DHT22;58294;42.988;20.338;2023-02-19T09:17:19;281.80;1638.40
70593;DHT22;58294;42.988;20.338;2023-02-19T09:19:45;282.00;1638.40
70593;DHT22;58294;42.988;20.338;2023-02-19T09:22:11;282.10;1638.40
70593;DHT22;58294;42.988;20.338;2023-02-19T09:24:37;282.20;1612.80
70593;DHT22;58294;42.988;20.338;2023-02-19T09:27:02;282.30;1612.80
70593;DHT22;58294;42.988;20.338;2023-02-19T09:29:28;282.40;1587.20
70593;DHT22;58294;42.988;20.338;2023-02-19T09:31:58;282.50;1561.60
70593;DHT22;58294;42.988;20.338;2023-02-19T09:34:26;307.20;1612.80
70593;DHT22;58294;42.988;20.338;2023-02-19T09:36:52;307.30;1587.20
70593;DHT22;58294;42.988;20.338;2023-02-19T09:39:19;307.40;1612.80
70593;DHT22;58294;42.988;20.338;2023-02-19T09:41:50;307.50;1587.20
70593;DHT22;58294;42.988;20.338;2023-02-19T09:44:31;307.70;1664.00
70593;DHT22;58294;42.988;20.338;2023-02-19T09:46:59;308.00;1715.20
70593;DHT22;58294;42.988;20.338;2023-02-19T09:54:28;333.30;1740.80
70593;DHT22;58294;42.988;20.338;2023-02-19T09:56:56;333.70;1868.80
70593;DHT22;58294;42.988;20.338;2023-02-19T09:59:38;359.00;1971.20
70593;DHT22;58294;42.988;20.338;2023-02-19T10:02:19;384.40;1996.80
70593;DHT22;58294;42.988;20.338;2023-02-19T10:04:47;409.70;1868.80
70593;DHT22;58294;42.988;20.338;2023-02-19T10:07:15;410.40;1664.00
70593;DHT22;58294;42.988;20.338;2023-02-19T10:09:47;435.90;1843.20
70593;DHT22;58294;42.988;20.338;2023-02-19T10:12:22;461.10;1766.40
70593;DHT22;58294;42.988;20.338;2023-02-19T10:14:51;461.60;1561.60
70593;DHT22;58294;42.988;20.338;2023-02-19T10:17:27;486.70;1843.20
70593;DHT22;58294;42.988;20.338;2023-02-19T10:19:55;487.20;1536.00
70593;DHT22;58294;42.988;20.338;2023-02-19T10:22:21;512.40;1459.20
70593;DHT22;58294;42.988;20.338;2023-02-19T10:24:51;537.60;1561.60
70593;DHT22;58294;42.988;20.338;2023-02-19T10:27:17;538.10;1331.20
70593;DHT22;58294;42.988;20.338;2023-02-19T10:29:44;563.20;1254.40
70593;DHT22;58294;42.988;20.338;2023-02-19T10:32:31;563.40;1203.20
70593;DHT22;58294;42.988;20.338;2023-02-19T10:35:15;563.70;1382.40
70593;DHT22;58294;42.988;20.338;2023-02-19T10:37:46;564.00;1331.20
70593;DHT22;58294;42.988;20.338;2023-02-19T10:40:23;588.90;1126.40
70593;DHT22;58294;42.988;20.338;2023-02-19T10:43:01;589.20;1280.00
70593;DHT22;58294;42.988;20.338;2023-02-19T10:45:45;614.40;1228.80
70593;DHT22;58294;42.988;20.338;2023-02-19T10:48:23;614.40;1126.40
70593;DHT22;58294;42.988;20.338;2023-02-19T10:50:54;614.80;1203.20
70593;DHT22;58294;42.988;20.338;2023-02-19T10:53:35;614.80;1075.20
70593;DHT22;58294;42.988;20.338;2023-02-19T10:56:28;614.80;1152.00
70593;DHT22;58294;42.988;20.338;2023-02-19T10:59:33;614.70;1126.40
70593;DHT22;58294;42.988;20.338;2023-02-19T11:01:59;615.10;1382.40
70593;DHT22;58294;42.988;20.338;2023-02-19T11:04:27;615.30;998.40
70593;DHT22;58294;42.988;20.338;2023-02-19T11:06:54;640.30;1075.20
70593;DHT22;58294;42.988;20.338;2023-02-19T11:09:28;640.50;1100.80
70593;DHT22;58294;42.988;20.338;2023-02-19T11:11:55;640.50;998.40
70593;DHT22;58294;42.988;20.338;2023-02-19T11:14:23;640.70;742.40
70593;DHT22;58294;42.988;20.338;2023-02-19T11:16:52;640.60;742.40
70593;DHT22;58294;42.988;20.338;2023-02-19T11:22:17;640.00;716.80
70593;DHT22;58294;42.988;20.338;2023-02-19T11:24:47;615.20;819.20
70593;DHT22;58294;42.988;20.338;2023-02-19T11:27:20;614.90;819.20
70593;DHT22;58294;42.988;20.338;2023-02-19T11:29:46;614.80;844.80
70593;DHT22;58294;42.988;20.338;2023-02-19T11:32:25;614.90;742.40
70593;DHT22;58294;42.988;20.338;2023-02-19T11:34:51;614.90;896.00
70593;DHT22;58294;42.988;20.338;2023-02-19T11:37:30;614.80;768.00
70593;DHT22;58294;42.988;20.338;2023-02-19T11:39:55;614.90;742.40
70593;DHT22;58294;42.988;20.338;2023-02-19T11:50:55;614.40;716.80
70593;DHT22;58294;42.988;20.338;2023-02-19T11:53:31;589.50;691.20
70593;DHT22;58294;42.988;20.338;2023-02-19T11:56:12;588.90;691.20
70593;DHT22;58294;42.988;20.338;2023-02-19T11:59:06;563.80;742.40
70593;DHT22;58294;42.988;20.338;2023-02-19T12:01:52;563.20;742.40
70593;DHT22;58294;42.988;20.338;2023-02-19T12:07:31;512.90;716.80
70593;DHT22;58294;42.988;20.338;2023-02-19T12:10:22;512.40;742.40
70593;DHT22;58294;42.988;20.338;2023-02-19T12:12:56;512.10;768.00
70593;DHT22;58294;42.988;20.338;2023-02-19T12:15:41;487.30;768.00
70593;DHT22;58294;42.988;20.338;2023-02-19T12:18:41;487.10;768.00
70593;DHT22;58294;42.988;20.338;2023-02-19T12:43:50;461.50;844.80
70593;DHT22;58294;42.988;20.338;2023-02-19T12:46:28;461.40;844.80
70593;DHT22;58294;42.988;20.338;2023-02-19T12:49:38;461.30;844.80
70593;DHT22;58294;42.988;20.338;2023-02-19T12:52:31;461.20;844.80
70593;DHT22;58294;42.988;20.338;2023-02-19T12:55:20;461.10;870.40
70593;DHT22;58294;42.988;20.338;2023-02-19T12:57:46;461.00;870.40
70593;DHT22;58294;42.988;20.338;2023-02-19T13:03:12;436.10;844.80
70593;DHT22;58294;42.988;20.338;2023-02-19T13:05:51;436.00;870.40
70593;DHT22;58294;42.988;20.338;2023-02-19T13:08:46;435.90;870.40
70593;DHT22;58294;42.988;20.338;2023-02-19T13:11:17;435.80;896.00
70593;DHT22;58294;42.988;20.338;2023-02-19T13:13:53;435.70;896.00
70593;DHT22;58294;42.988;20.338;2023-02-19T13:16:21;435.80;896.00
70593;DHT22;58294;42.988;20.338;2023-02-19T13:18:57;435.90;896.00
70593;DHT22;58294;42.988;20.338;2023-02-19T13:21:27;436.00;896.00
70593;DHT22;58294;42.988;20.338;2023-02-19T13:24:20;436.10;896.00
70593;DHT22;58294;42.988;20.338;2023-02-19T13:29:56;436.10;896.00
70593;DHT22;58294;42.988;20.338;2023-02-19T13:38:12;436.00;896.00
70593;DHT22;58294;42.988;20.338;2023-02-19T13:40:39;435.90;896.00
70593;DHT22;58294;42.988;20.338;2023-02-19T13:43:36;435.80;896.00
70593;DHT22;58294;42.988;20.338;2023-02-19T13:46:10;435.70;896.00
70593;DHT22;58294;42.988;20.338;2023-02-19T13:48:40;435.70;896.00
70593;DHT22;58294;42.988;20.338;2023-02-19T14:04:40;435.40;921.60
70593;DHT22;58294;42.988;20.338;2023-02-19T14:14:44;435.40;947.20
70593;DHT22;58294;42.988;20.338;2023-02-19T14:19:50;435.30;947.20
70593;DHT22;58294;42.988;20.338;2023-02-19T14:25:31;435.30;947.20
70593;DHT22;58294;42.988;20.338;2023-02-19T14:28:16;435.20;947.20
70593;DHT22;58294;42.988;20.338;2023-02-19T14:33:34;435.20;972.80
70593;DHT22;58294;42.988;20.338;2023-02-19T14:38:37;410.40;972.80
70593;DHT22;58294;42.988;20.338;2023-02-19T14:41:10;410.40;972.80
70593;DHT22;58294;42.988;20.338;2023-02-19T14:43:37;410.40;972.80
70593;DHT22;58294;42.988;20.338;2023-02-19T14:46:13;410.40;972.80
70593;DHT22;58294;42.988;20.338;2023-02-19T14:48:45;410.40;972.80
70593;DHT22;58294;42.988;20.338;2023-02-19T14:51:37;410.30;972.80
70593;DHT22;58294;42.988;20.338;2023-02-19T14:54:13;410.40;972.80
70593;DHT22;58294;42.988;20.338;2023-02-19T14:56:43;410.40;972.80
70593;DHT22;58294;42.988;20.338;2023-02-19T15:01:36;410.30;972.80
70593;DHT22;58294;42.988;20.338;2023-02-19T15:04:03;410.30;998.40
70593;DHT22;58294;42.988;20.338;2023-02-19T15:06:30;410.30;998.40
70593;DHT22;58294;42.988;20.338;2023-02-19T15:09:02;410.10;998.40
70593;DHT22;58294;42.988;20.338;2023-02-19T15:11:30;410.10;998.40
70593;DHT22;58294;42.988;20.338;2023-02-19T15:14:02;410.00;998.40
70593;DHT22;58294;42.988;20.338;2023-02-19T15:16:31;410.00;972.80
70593;DHT22;58294;42.988;20.338;2023-02-19T15:18:58;409.80;998.40
70593;DHT22;58294;42.988;20.338;2023-02-19T15:21:31;409.80;998.40
70593;DHT22;58294;42.988;20.338;2023-02-19T15:24:00;409.70;998.40
70593;DHT22;58294;42.988;20.338;2023-02-19T15:26:47;409.60;998.40
70593;DHT22;58294;42.988;20.338;2023-02-19T15:29:17;384.90;972.80
70593;DHT22;58294;42.988;20.338;2023-02-19T15:31:48;384.80;972.80
70593;DHT22;58294;42.988;20.338;2023-02-19T15:34:22;384.70;1024.00
70593;DHT22;58294;42.988;20.338;2023-02-19T15:37:01;384.60;998.40
70593;DHT22;58294;42.988;20.338;2023-02-19T15:39:34;384.50;998.40
70593;DHT22;58294;42.988;20.338;2023-02-19T15:42:04;384.40;998.40
70593;DHT22;58294;42.988;20.338;2023-02-19T15:44:57;384.20;1024.00
70593;DHT22;58294;42.988;20.338;2023-02-19T15:47:28;384.10;972.80
70593;DHT22;58294;42.988;20.338;2023-02-19T15:50:08;384.00;1024.00
70593;DHT22;58294;42.988;20.338;2023-02-19T15:58:38;359.20;998.40
70593;DHT22;58294;42.988;20.338;2023-02-19T16:00:52;359.20;1024.00
70593;DHT22;58294;42.988;20.338;2023-02-19T16:03:21;359.00;1024.00
70593;DHT22;58294;42.988;20.338;2023-02-19T16:08:31;358.70;1049.60
70593;DHT22;58294;42.988;20.338;2023-02-19T16:11:00;358.60;1075.20
70593;DHT22;58294;42.988;20.338;2023-02-19T16:13:28;358.40;1126.40
70593;DHT22;58294;42.988;20.338;2023-02-19T16:18:25;333.50;1126.40
70593;DHT22;58294;42.988;20.338;2023-02-19T16:20:50;333.40;1177.60
70593;DHT22;58294;42.988;20.338;2023-02-19T16:23:17;333.30;1152.00
70593;DHT22;58294;42.988;20.338;2023-02-19T16:25:47;333.30;1152.00
70593;DHT22;58294;42.988;20.338;2023-02-19T16:28:22;333.20;1126.40
70593;DHT22;58294;42.988;20.338;2023-02-19T16:30:59;333.10;1177.60
70593;DHT22;58294;42.988;20.338;2023-02-19T16:36:22;333.00;1228.80
70593;DHT22;58294;42.988;20.338;2023-02-19T16:47:16;308.10;1203.20
70593;DHT22;58294;42.988;20.338;2023-02-19T16:49:42;308.10;1203.20
70593;DHT22;58294;42.988;20.338;2023-02-19T16:52:13;308.00;1228.80
70593;DHT22;58294;42.988;20.338;2023-02-19T16:54:39;308.00;1203.20
70593;DHT22;58294;42.988;20.338;2023-02-19T16:57:05;308.00;1228.80
70593;DHT22;58294;42.988;20.338;2023-02-19T16:59:31;308.00;1228.80
70593;DHT22;58294;42.988;20.338;2023-02-19T17:01:56;307.90;1177.60
70593;DHT22;58294;42.988;20.338;2023-02-19T17:04:22;307.90;1203.20
70593;DHT22;58294;42.988;20.338;2023-02-19T17:06:48;307.90;1203.20
70593;DHT22;58294;42.988;20.338;2023-02-19T17:09:14;307.80;1203.20
70593;DHT22;58294;42.988;20.338;2023-02-19T17:11:40;307.80;1228.80
70593;DHT22;58294;42.988;20.338;2023-02-19T17:14:05;307.70;1203.20
70593;DHT22;58294;42.988;20.338;2023-02-19T17:16:33;307.70;1203.20
70593;DHT22;58294;42.988;20.338;2023-02-19T17:19:24;307.70;1177.60